Time;durP1;ratioP1;P1;durP2;ratioP2;P2;SDS_P1;SDS_P2;PMS_P1;PMS_P2;Temp;Humidity;BMP_temperature;BMP_pressure;BME280_temperature;BME280_humidity;BME280_pressure;Samples;Min_cycle;Max_cycle;Signal;HPM_P1;HPM_P2
2022/04/27 00:01:55;;;;;;;25.70;10.35;;;;;;;23.06;53.48;101376.97;4166638;28;20033;-66
2022/04/27 00:03:56;;;;;;;23.70;10.35;;;;;;;23.03;53.83;101363.56;4166946;28;20029;-66
2022/04/27 00:05:57;;;;;;;29.55;11.60;;;;;;;23.05;53.45;101364.97;4166633;28;20175;-66
2022/04/27 00:07:59;;;;;;;26.02;12.20;;;;;;;23.04;53.14;101362.44;4179652;28;20469;-66
2022/04/27 00:10:01;;;;;;;32.30;15.50;;;;;;;23.06;53.78;101365.81;4182916;28;20447;-66
2022/04/27 00:12:02;;;;;;;34.10;15.93;;;;;;;23.06;53.07;101363.00;4183060;28;20041;-66
2022/04/27 00:14:06;;;;;;;39.08;18.13;;;;;;;23.06;52.92;101368.59;4182999;28;20075;-66
2022/04/27 00:16:08;;;;;;;38.00;18.13;;;;;;;23.05;53.12;101367.78;4181855;28;20037;-66
2022/04/27 00:18:09;;;;;;;48.47;23.52;;;;;;;23.02;53.06;101359.13;4171406;28;20088;-66
2022/04/27 00:20:11;;;;;;;43.15;21.13;;;;;;;23.03;53.10;101377.53;4167959;28;20103;-66
2022/04/27 00:22:13;;;;;;;43.60;21.10;;;;;;;23.03;52.87;101388.69;4166945;28;20033;-66
2022/04/27 00:24:15;;;;;;;45.25;24.25;;;;;;;23.04;53.43;101391.19;4168599;28;20378;-66
2022/04/27 00:26:16;;;;;;;52.38;26.27;;;;;;;23.01;53.03;101390.94;4166072;28;20592;-66
2022/04/27 00:28:20;;;;;;;48.00;26.52;;;;;;;22.94;52.96;101380.06;4167072;28;20049;-66
2022/04/27 00:30:22;;;;;;;55.20;26.83;;;;;;;22.88;52.69;101380.34;4177369;28;20480;-73
2022/04/27 00:32:25;;;;;;;55.55;29.35;;;;;;;23.02;52.85;101409.38;4166338;28;20103;-66
2022/04/27 00:34:26;;;;;;;51.10;27.88;;;;;;;23.02;53.17;101409.38;4166531;28;20065;-65
2022/04/27 00:36:30;;;;;;;58.28;32.00;;;;;;;23.03;53.17;101413.81;4165848;28;20037;-65
2022/04/27 00:38:32;;;;;;;54.20;27.80;;;;;;;22.97;53.09;101414.97;4168557;28;20076;-65
2022/04/27 00:40:33;;;;;;;58.22;29.65;;;;;;;23.04;53.18;101423.84;4173125;28;20581;-65
2022/04/27 00:42:34;;;;;;;54.53;29.98;;;;;;;23.02;52.29;101415.78;4180400;28;20152;-66
2022/04/27 00:44:37;;;;;;;56.38;31.42;;;;;;;23.02;52.42;101418.56;4182822;28;20082;-66
2022/04/27 00:46:40;;;;;;;65.03;32.90;;;;;;;22.92;52.24;101410.22;4183492;28;20187;-67
2022/04/27 00:48:42;;;;;;;63.33;32.17;;;;;;;23.04;52.25;101435.03;4177244;28;20476;-67
2022/04/27 00:50:46;;;;;;;58.35;32.38;;;;;;;23.03;51.89;101428.59;4172395;28;20049;-66
2022/04/27 00:52:49;;;;;;;62.38;31.60;;;;;;;23.04;52.28;101432.22;4178949;28;20099;-67
2022/04/27 00:54:55;;;;;;;58.78;30.77;;;;;;;23.03;51.84;101433.34;4182884;28;20029;-66
2022/04/27 00:57:51;;;;;;;49.17;28.10;;;;;;;23.02;51.82;101423.31;4182144;28;20048;-67
2022/04/27 00:59:53;;;;;;;66.18;31.55;;;;;;;23.06;52.44;101416.06;4174890;28;20041;-64
2022/04/27 01:01:57;;;;;;;52.50;29.10;;;;;;;23.05;51.77;101415.22;4165984;28;20041;-67
2022/04/27 01:03:59;;;;;;;53.67;27.55;;;;;;;23.05;51.43;101417.19;4166361;28;20476;-66
2022/04/27 01:06:03;;;;;;;53.90;28.52;;;;;;;23.05;51.97;101414.38;4166269;28;20480;-67
2022/04/27 01:08:07;;;;;;;60.65;28.30;;;;;;;23.05;51.82;101414.38;4178840;28;20037;-66
2022/04/27 01:10:10;;;;;;;49.13;27.48;;;;;;;23.03;52.00;101413.81;4180756;28;20377;-67
2022/04/27 01:12:11;;;;;;;59.72;26.90;;;;;;;23.02;51.90;101409.38;4182762;28;20090;-66
2022/04/27 01:14:13;;;;;;;56.28;26.15;;;;;;;23.03;52.50;101413.81;4182501;28;20660;-67
2022/04/27 01:16:14;;;;;;;51.72;27.70;;;;;;;23.04;52.29;101418.28;4179059;28;20545;-67
2022/04/27 01:18:16;;;;;;;59.58;29.15;;;;;;;23.01;51.61;101419.69;4180556;28;20041;-67
2022/04/27 01:20:17;;;;;;;60.05;28.75;;;;;;;22.93;52.33;101411.06;4170409;28;20084;-67
2022/04/27 01:22:21;;;;;;;54.88;27.48;;;;;;;22.99;51.91;101426.66;4165733;28;20033;-68
2022/04/27 01:24:26;;;;;;;55.83;27.58;;;;;;;23.06;52.38;101421.63;4176480;28;20033;-69
2022/04/27 01:26:28;;;;;;;57.83;27.73;;;;;;;23.06;52.27;101424.44;4165231;28;20415;-66
2022/04/27 01:28:30;;;;;;;62.00;30.75;;;;;;;23.07;52.72;101421.34;4165885;28;20535;-65
2022/04/27 01:30:31;;;;;;;55.25;29.13;;;;;;;23.05;53.23;101414.38;4165520;28;20096;-67
2022/04/27 01:32:35;;;;;;;51.92;28.00;;;;;;;22.99;52.76;101402.38;4164416;28;20041;-67
2022/04/27 01:34:37;;;;;;;59.03;29.25;;;;;;;23.06;52.50;101418.84;4170673;28;20056;-67
2022/04/27 01:36:38;;;;;;;51.33;27.83;;;;;;;23.07;52.77;101423.31;4174518;28;20045;-66
2022/04/27 01:38:42;;;;;;;56.47;29.88;;;;;;;23.07;52.64;101423.31;4165190;28;20072;-67
2022/04/27 01:40:46;;;;;;;55.80;29.45;;;;;;;23.07;52.44;101434.47;4165997;28;20461;-67
2022/04/27 01:42:49;;;;;;;55.30;28.67;;;;;;;23.08;52.67;101447.28;4166915;28;20539;-67
2022/04/27 01:44:50;;;;;;;56.58;29.08;;;;;;;22.96;52.42;101424.47;4166078;28;20566;-67
2022/04/27 01:46:52;;;;;;;52.83;27.95;;;;;;;23.09;52.52;101443.38;4166065;28;20539;-67
2022/04/27 01:48:54;;;;;;;56.63;29.05;;;;;;;23.10;52.15;101439.50;4165253;28;20107;-66
2022/04/27 01:50:56;;;;;;;53.70;27.92;;;;;;;23.09;52.40;101437.78;4165318;28;20033;-66
2022/04/27 01:55:19;;;;;;;52.70;27.20;;;;;;;23.09;52.18;101454.53;4165619;28;20083;-66
2022/04/27 01:57:20;;;;;;;59.92;28.98;;;;;;;23.10;52.23;101445.06;4170099;28;20044;-66
2022/04/27 01:59:24;;;;;;;52.47;27.92;;;;;;;23.10;52.98;101442.28;4180131;28;20427;-66
2022/04/27 02:01:26;;;;;;;51.08;27.88;;;;;;;23.06;53.01;101444.81;4179572;28;20040;-67
2022/04/27 02:03:27;;;;;;;55.08;28.23;;;;;;;23.09;52.68;101454.53;4181374;28;20098;-66
2022/04/27 02:05:29;;;;;;;54.88;29.27;;;;;;;23.00;52.63;101440.34;4175773;28;20045;-66
2022/04/27 02:07:30;;;;;;;52.00;27.17;;;;;;;23.10;52.47;101461.00;4181476;28;20099;-66
2022/04/27 02:09:32;;;;;;;53.58;29.15;;;;;;;23.08;52.85;101469.63;4181704;28;20091;-68
2022/04/27 02:11:38;;;;;;;54.72;28.10;;;;;;;23.12;52.56;101478.28;4181181;28;20438;-67
2022/04/27 02:13:39;;;;;;;54.22;27.75;;;;;;;23.12;52.66;101467.13;4181551;28;20094;-68
2022/04/27 02:15:44;;;;;;;50.13;28.58;;;;;;;23.09;52.40;101451.75;4165228;28;20067;-68
2022/04/27 02:17:50;;;;;;;57.45;28.50;;;;;;;23.11;52.43;101452.31;4181151;28;20028;-66
2022/04/27 02:19:51;;;;;;;48.42;27.48;;;;;;;23.12;52.92;101454.00;4178823;28;20040;-66
2022/04/27 02:21:53;;;;;;;50.17;27.35;;;;;;;23.12;52.68;101454.00;4168240;28;20045;-66
2022/04/27 02:23:56;;;;;;;53.58;28.70;;;;;;;23.13;53.28;101450.06;4167862;28;20068;-69
2022/04/27 02:26:01;;;;;;;49.85;27.70;;;;;;;23.12;52.73;101454.00;4180949;28;20037;-67
2022/04/27 02:28:02;;;;;;;54.30;28.02;;;;;;;23.12;52.65;101454.00;4178606;28;20045;-66
2022/04/27 02:30:05;;;;;;;52.30;27.80;;;;;;;22.88;52.14;101413.84;4176274;28;20558;-68
2022/04/27 02:32:06;;;;;;;49.78;27.27;;;;;;;23.12;52.66;101459.56;4171209;28;20484;-68
2022/04/27 02:34:08;;;;;;;44.92;26.23;;;;;;;23.13;52.61;101452.03;4180139;28;20036;-68
2022/04/27 02:36:09;;;;;;;46.08;25.63;;;;;;;23.14;53.05;101450.91;4177928;28;20041;-68
2022/04/27 02:38:10;;;;;;;49.63;26.48;;;;;;;23.13;52.53;101444.47;4197484;28;20091;-67
2022/04/27 02:40:15;;;;;;;48.53;25.92;;;;;;;23.12;52.56;101440.03;4177388;28;20041;-67
2022/04/27 02:42:19;;;;;;;46.83;25.77;;;;;;;23.14;52.85;101435.00;4175023;28;20052;-68
2022/04/27 02:44:21;;;;;;;46.73;26.07;;;;;;;23.13;52.27;101438.91;4181022;28;20472;-68
2022/04/27 02:46:28;;;;;;;53.03;26.92;;;;;;;23.16;52.50;101437.50;4170070;28;20285;-68
2022/04/27 02:48:29;;;;;;;43.00;24.58;;;;;;;23.17;52.86;101434.44;4176323;28;20489;-68
2022/04/27 02:52:51;;;;;;;48.58;25.83;;;;;;;23.19;52.46;101432.19;4166534;28;20107;-67
2022/04/27 02:54:52;;;;;;;44.75;25.00;;;;;;;23.02;52.42;101393.44;4174153;28;20444;-68
2022/04/27 02:56:59;;;;;;;51.15;24.77;;;;;;;23.16;52.33;101423.56;4164411;28;20046;-67
2022/04/27 02:59:00;;;;;;;47.58;25.00;;;;;;;23.17;52.70;101423.25;4164785;28;20111;-67
2022/04/27 03:01:02;;;;;;;46.45;24.05;;;;;;;23.16;52.85;101424.38;4164537;28;20049;-68
2022/04/27 03:03:09;;;;;;;40.13;23.55;;;;;;;23.17;52.46;101430.81;4164369;28;20096;-68
2022/04/27 03:05:13;;;;;;;41.60;22.90;;;;;;;23.18;52.69;101430.50;4176075;28;20040;-67
2022/04/27 03:07:15;;;;;;;42.60;23.70;;;;;;;23.15;52.35;101419.94;4195106;28;20102;-67
2022/04/27 03:09:16;;;;;;;47.30;24.25;;;;;;;23.17;52.99;101423.25;4180241;28;20106;-70
2022/04/27 03:11:23;;;;;;;47.65;23.60;;;;;;;23.18;53.16;101419.34;4170057;28;20041;-68
2022/04/27 03:13:24;;;;;;;43.92;24.15;;;;;;;23.17;52.50;101417.69;4178306;28;20045;-69
2022/04/27 03:15:31;;;;;;;47.30;24.17;;;;;;;23.18;53.16;101419.34;4166967;28;20451;-72
2022/04/27 03:17:32;;;;;;;45.92;24.25;;;;;;;23.18;52.63;101424.91;4177128;28;20052;-68
2022/04/27 03:19:37;;;;;;;40.97;22.17;;;;;;;23.17;52.92;101416.84;4172295;28;20049;-68
2022/04/27 03:21:42;;;;;;;40.75;22.63;;;;;;;23.17;52.80;101428.84;4178767;28;20398;-68
2022/04/27 03:23:50;;;;;;;39.17;21.77;;;;;;;23.18;52.97;101422.13;4186325;28;20441;-69
2022/04/27 03:25:54;;;;;;;41.92;22.88;;;;;;;23.02;52.90;101393.44;4194335;28;20097;-66
2022/04/27 03:27:55;;;;;;;40.10;22.65;;;;;;;23.16;52.59;101420.75;4174813;28;20090;-69
2022/04/27 03:29:56;;;;;;;42.08;21.75;;;;;;;23.20;52.36;101421.88;4184299;28;20045;-67
2022/04/27 03:31:58;;;;;;;42.70;21.52;;;;;;;23.20;53.29;101421.88;4176982;28;20053;-68
2022/04/27 03:33:59;;;;;;;42.63;21.90;;;;;;;23.18;52.72;101424.91;4180176;28;20126;-68
2022/04/27 03:36:00;;;;;;;40.33;21.50;;;;;;;23.20;53.22;101421.88;4179568;28;20573;-68
2022/04/27 03:38:03;;;;;;;39.53;22.35;;;;;;;23.13;52.71;101416.56;4180885;28;20103;-68
2022/04/27 03:40:05;;;;;;;38.58;20.85;;;;;;;23.19;52.93;101426.63;4183731;28;20385;-69
2022/04/27 03:42:09;;;;;;;38.00;21.45;;;;;;;23.19;52.81;101426.63;4179496;28;20059;-68
2022/04/27 03:44:11;;;;;;;36.75;20.65;;;;;;;23.14;52.31;101421.06;4167818;28;20038;-68
2022/04/27 03:46:12;;;;;;;38.35;20.33;;;;;;;23.20;51.99;101421.88;4178082;28;20468;-68
2022/04/27 03:48:14;;;;;;;39.38;20.80;;;;;;;23.06;52.62;101393.72;4178983;28;20036;-68
2022/04/27 03:50:16;;;;;;;33.83;19.50;;;;;;;23.19;51.82;101421.03;4183989;28;20079;-69
2022/04/27 03:52:18;;;;;;;36.17;19.48;;;;;;;23.20;52.32;101410.69;4185398;28;20037;-70
2022/04/27 03:54:20;;;;;;;33.88;19.63;;;;;;;23.07;52.07;101401.81;4185408;28;20033;-69
2022/04/27 03:56:21;;;;;;;36.83;20.23;;;;;;;23.16;52.11;101410.44;4184812;28;20041;-68
2022/04/27 03:58:23;;;;;;;33.40;18.40;;;;;;;23.18;52.18;101418.50;4184157;28;20036;-68
2022/04/27 04:00:25;;;;;;;34.42;18.85;;;;;;;23.14;51.95;101407.09;4183947;28;20106;-69
2022/04/27 04:02:26;;;;;;;34.55;19.92;;;;;;;23.16;51.99;101404.84;4176658;28;20450;-68
2022/04/27 04:04:27;;;;;;;31.58;17.90;;;;;;;23.16;52.17;101416.00;4169340;28;20058;-70
2022/04/27 04:06:29;;;;;;;36.15;18.73;;;;;;;23.18;52.38;101410.13;4178727;28;20500;-68
2022/04/27 04:08:31;;;;;;;32.90;17.98;;;;;;;23.17;52.30;101414.06;4177424;28;20103;-68
2022/04/27 04:10:35;;;;;;;34.47;19.10;;;;;;;23.16;52.25;101409.59;4178712;28;20500;-68
2022/04/27 04:12:39;;;;;;;39.60;18.88;;;;;;;23.14;52.57;101412.69;4179544;28;20041;-69
2022/04/27 04:14:41;;;;;;;36.33;19.53;;;;;;;23.14;52.30;101406.22;4168243;28;20091;-68
2022/04/27 04:16:42;;;;;;;32.25;17.25;;;;;;;23.00;52.35;101383.66;4183376;28;20045;-69
2022/04/27 04:18:44;;;;;;;29.33;16.48;;;;;;;23.10;52.14;101411.56;4180090;28;20441;-68
2022/04/27 04:20:46;;;;;;;31.55;17.63;;;;;;;23.15;52.17;101414.34;4185018;28;20045;-68
2022/04/27 04:22:48;;;;;;;31.55;18.50;;;;;;;23.14;52.36;101415.47;4173494;28;20033;-67
2022/04/27 04:29:31;;;;;;;31.70;16.98;;;;;;;23.17;52.09;101423.25;4177519;28;20071;-67
2022/04/27 04:31:36;;;;;;;32.42;17.05;;;;;;;23.10;52.00;101416.31;4174658;28;20045;-68
2022/04/27 04:33:40;;;;;;;28.05;15.95;;;;;;;23.13;51.79;101416.56;4167648;28;20462;-69
2022/04/27 04:35:41;;;;;;;29.52;16.45;;;;;;;23.15;52.19;101425.50;4171246;28;20049;-68
2022/04/27 04:37:43;;;;;;;27.33;15.60;;;;;;;23.09;52.00;101418.25;4181689;28;20041;-68
2022/04/27 04:39:49;;;;;;;29.75;16.02;;;;;;;23.09;52.06;101421.03;4174136;28;20041;-69
2022/04/27 04:41:50;;;;;;;29.30;15.18;;;;;;;23.07;51.81;101412.13;4181244;28;20049;-68
2022/04/27 04:43:52;;;;;;;23.73;14.82;;;;;;;23.14;52.07;101428.56;4183468;28;20439;-69
2022/04/27 04:45:54;;;;;;;25.75;16.15;;;;;;;23.13;52.07;101427.72;4178414;28;20101;-68
2022/04/27 04:47:55;;;;;;;24.15;15.45;;;;;;;23.15;52.02;101422.72;4182275;28;20041;-67
2022/04/27 04:50:00;;;;;;;27.17;15.18;;;;;;;23.14;51.96;101423.84;4181656;28;20480;-68
2022/04/27 04:52:01;;;;;;;28.10;15.05;;;;;;;23.12;52.13;101426.06;4175442;28;20463;-70
2022/04/27 04:54:06;;;;;;;28.17;15.27;;;;;;;23.15;51.88;101435.84;4172903;28;20037;-67
2022/04/27 04:56:07;;;;;;;26.13;15.02;;;;;;;23.06;51.84;101428.03;4165600;28;20096;-68
2022/04/27 04:58:12;;;;;;;26.30;14.13;;;;;;;23.14;51.73;101445.31;4166635;28;20038;-67
2022/04/27 05:00:29;;;;;;;26.23;14.67;;;;;;;23.05;51.64;101419.97;4171730;28;20045;-69
2022/04/27 05:02:34;;;;;;;24.90;13.35;;;;;;;23.12;51.74;101428.88;4161447;28;20448;-67
2022/04/27 05:04:38;;;;;;;23.98;13.60;;;;;;;23.13;51.79;101447.28;4195631;28;20048;-68
2022/04/27 05:06:39;;;;;;;24.67;14.13;;;;;;;23.15;51.79;101450.63;4181123;28;20040;-67
2022/04/27 05:08:41;;;;;;;24.02;12.93;;;;;;;23.15;51.95;101447.84;4180403;28;20095;-69
2022/04/27 05:10:42;;;;;;;24.15;13.88;;;;;;;23.14;51.97;101457.34;4168506;28;20037;-68
2022/04/27 05:12:44;;;;;;;23.70;13.40;;;;;;;23.10;51.90;101436.69;4174080;28;20102;-68
2022/04/27 05:14:57;;;;;;;25.48;13.10;;;;;;;23.16;52.00;101449.50;4181768;28;20095;-69
2022/04/27 05:16:59;;;;;;;21.58;12.35;;;;;;;23.17;51.50;101451.19;4172390;28;20075;-69
2022/04/27 05:19:00;;;;;;;22.15;12.98;;;;;;;23.11;51.32;101443.94;4177545;28;20028;-68
2022/04/27 05:21:01;;;;;;;23.02;12.45;;;;;;;23.19;51.31;101460.13;4177027;28;20079;-69
2022/04/27 05:23:06;;;;;;;21.63;11.98;;;;;;;23.01;51.47;101430.03;4177684;28;20037;-69
2022/04/27 05:25:13;;;;;;;20.67;12.70;;;;;;;23.19;51.42;101457.31;4178587;28;20045;-69
2022/04/27 05:27:15;;;;;;;20.95;12.65;;;;;;;23.16;51.35;101455.09;4179821;28;20522;-69
2022/04/27 05:31:58;;;;;;;20.23;12.38;;;;;;;23.18;51.51;101460.38;4183836;28;20116;-68
2022/04/27 05:33:59;;;;;;;21.40;11.60;;;;;;;23.16;51.16;101466.25;4180958;28;20037;-69
2022/04/27 05:36:03;;;;;;;18.85;12.27;;;;;;;23.16;51.12;101462.63;4178193;28;20045;-68
2022/04/27 05:38:05;;;;;;;20.58;12.35;;;;;;;23.15;51.15;101469.34;4181598;28;20071;-68
2022/04/27 05:40:10;;;;;;;18.85;11.95;;;;;;;23.15;51.17;101464.59;4182223;28;20468;-68
2022/04/27 05:42:11;;;;;;;20.63;11.80;;;;;;;23.15;51.35;101467.38;4178713;28;20099;-68
2022/04/27 05:44:13;;;;;;;17.77;11.15;;;;;;;23.13;51.38;101472.41;4167839;28;20041;-69
2022/04/27 05:46:17;;;;;;;19.08;11.80;;;;;;;23.14;51.52;101479.69;4165102;28;20107;-68
2022/04/27 05:48:18;;;;;;;18.52;11.15;;;;;;;23.15;51.27;101472.97;4177631;28;20083;-69
2022/04/27 05:50:20;;;;;;;17.35;10.73;;;;;;;23.12;50.97;101470.75;4179805;28;20090;-69
2022/04/27 05:52:21;;;;;;;21.13;11.65;;;;;;;23.12;51.22;101470.75;4180915;28;20037;-68
2022/04/27 05:54:23;;;;;;;18.23;11.63;;;;;;;22.96;51.32;101452.38;4181365;28;20431;-68
2022/04/27 05:56:24;;;;;;;18.98;11.32;;;;;;;23.11;51.34;101476.63;4172788;28;20470;-69
2022/04/27 05:58:26;;;;;;;19.73;11.10;;;;;;;23.10;51.14;101473.00;4168986;28;20041;-68
2022/04/27 06:00:27;;;;;;;19.13;11.07;;;;;;;23.09;50.89;101476.88;4177722;28;20052;-69
2022/04/27 06:02:28;;;;;;;16.95;10.98;;;;;;;23.11;51.13;101469.06;4179552;28;20045;-69
2022/04/27 06:04:30;;;;;;;18.15;10.57;;;;;;;23.08;50.95;101469.63;4181166;28;20037;-69
2022/04/27 06:06:34;;;;;;;15.02;10.07;;;;;;;23.00;51.32;101453.44;4180328;28;20041;-69
2022/04/27 06:08:38;;;;;;;18.30;10.63;;;;;;;23.10;51.28;101472.16;4179695;28;20463;-69
2022/04/27 06:10:40;;;;;;;15.85;10.07;;;;;;;23.10;51.30;101461.81;4179117;28;20095;-69
2022/04/27 06:12:49;;;;;;;16.73;10.23;;;;;;;23.09;51.01;101460.13;4180223;28;20057;-69
2022/04/27 06:14:50;;;;;;;18.85;10.88;;;;;;;23.09;50.95;101465.72;4181211;28;20181;-68
2022/04/27 06:16:51;;;;;;;14.77;9.48;;;;;;;23.07;51.16;101467.97;4178583;28;20099;-67
2022/04/27 06:18:55;;;;;;;16.30;9.45;;;;;;;23.07;51.25;101467.97;4179325;28;20048;-67
2022/04/27 06:20:57;;;;;;;17.87;10.40;;;;;;;23.06;51.21;101460.72;4164958;28;20113;-67
2022/04/27 06:22:58;;;;;;;14.45;9.98;;;;;;;23.05;51.05;101468.25;4164853;28;20290;-68
2022/04/27 06:25:06;;;;;;;16.83;9.90;;;;;;;23.05;51.17;101473.00;4177050;28;20041;-68
2022/04/27 06:27:07;;;;;;;15.00;9.15;;;;;;;23.05;50.76;101464.63;4178996;28;20472;-68
2022/04/27 06:29:09;;;;;;;13.70;10.20;;;;;;;22.81;50.91;101430.84;4177574;28;20095;-68
2022/04/27 06:31:15;;;;;;;14.05;8.98;;;;;;;23.03;50.97;101475.22;4181256;28;20095;-68
2022/04/27 06:33:16;;;;;;;15.27;9.48;;;;;;;23.05;50.98;101478.59;4180560;28;20033;-69
2022/04/27 06:35:18;;;;;;;15.00;8.82;;;;;;;23.05;50.96;101465.47;4171219;28;20045;-68
2022/04/27 06:37:19;;;;;;;13.52;9.35;;;;;;;23.02;50.94;101467.97;4179479;28;20045;-68
2022/04/27 06:39:20;;;;;;;13.55;8.90;;;;;;;23.03;50.57;101466.84;4180079;28;20118;-68
2022/04/27 06:41:22;;;;;;;16.10;10.00;;;;;;;23.03;50.89;101470.47;4182805;28;20451;-68
2022/04/27 06:43:23;;;;;;;18.80;9.55;;;;;;;23.03;50.44;101473.25;4184015;28;20048;-68
2022/04/27 06:45:31;;;;;;;13.85;9.20;;;;;;;23.02;50.68;101465.19;4179799;28;20045;-68
2022/04/27 06:47:32;;;;;;;13.60;8.52;;;;;;;23.01;50.73;101464.34;4181909;28;20107;-68
2022/04/27 06:49:34;;;;;;;15.48;9.00;;;;;;;23.01;50.60;101469.09;4194111;28;20049;-68
2022/04/27 06:51:35;;;;;;;12.45;8.55;;;;;;;22.99;50.57;101472.16;4186308;28;20049;-69
2022/04/27 06:53:37;;;;;;;15.23;9.07;;;;;;;22.97;50.62;101468.81;4183423;28;20032;-69
2022/04/27 06:55:38;;;;;;;13.25;9.25;;;;;;;22.98;50.85;101464.06;4178324;28;20090;-69
2022/04/27 06:57:39;;;;;;;13.25;8.40;;;;;;;23.00;50.69;101470.19;4189560;28;20096;-69
2022/04/27 06:59:41;;;;;;;13.75;8.57;;;;;;;22.98;50.77;101476.06;4181362;28;20481;-69
2022/04/27 07:01:42;;;;;;;11.82;8.00;;;;;;;22.83;50.70;101451.78;4186814;28;20048;-68
2022/04/27 07:03:45;;;;;;;12.15;8.05;;;;;;;22.98;50.41;101480.81;4194240;28;20071;-68
2022/04/27 07:05:47;;;;;;;12.25;8.15;;;;;;;22.97;50.58;101470.78;4192863;28;20041;-68
2022/04/27 07:07:54;;;;;;;11.93;7.75;;;;;;;22.96;50.45;101480.28;4181961;28;20037;-68
2022/04/27 07:09:56;;;;;;;13.80;8.48;;;;;;;22.98;50.62;101480.81;4175446;28;20053;-68
2022/04/27 07:11:58;;;;;;;12.38;8.23;;;;;;;22.99;50.56;101490.84;4179900;28;20403;-68
2022/04/27 07:14:00;;;;;;;13.00;8.15;;;;;;;22.96;50.05;101477.50;4195403;28;20094;-68
2022/04/27 07:16:03;;;;;;;15.35;8.00;;;;;;;22.96;50.35;101471.91;4184736;28;20902;-68
2022/04/27 07:18:07;;;;;;;13.10;7.88;;;;;;;22.95;50.49;101475.78;4177941;28;20088;-68
2022/04/27 07:20:09;;;;;;;12.30;7.60;;;;;;;22.96;50.13;101471.91;4178521;28;20094;-68
2022/04/27 07:22:12;;;;;;;10.18;7.40;;;;;;;22.95;50.33;101478.59;4181513;28;20087;-68
2022/04/27 07:24:13;;;;;;;11.15;7.25;;;;;;;22.94;50.04;101477.75;4190588;28;20074;-67
2022/04/27 07:26:17;;;;;;;12.13;7.30;;;;;;;22.78;50.21;101448.19;4184420;28;20048;-67
2022/04/27 07:28:19;;;;;;;13.80;8.23;;;;;;;22.96;49.97;101483.91;4188186;28;20062;-68
2022/04/27 07:30:23;;;;;;;12.75;7.50;;;;;;;22.94;50.04;101477.75;4192110;28;20169;-68
2022/04/27 07:32:27;;;;;;;13.68;7.18;;;;;;;22.94;50.20;101485.28;4170982;28;20087;-68
2022/04/27 07:34:30;;;;;;;11.68;7.70;;;;;;;22.94;50.21;101474.13;4189230;28;20037;-68
2022/04/27 07:36:34;;;;;;;10.15;6.95;;;;;;;22.94;50.15;101479.72;4198349;28;20052;-68
2022/04/27 07:38:38;;;;;;;11.98;6.97;;;;;;;22.94;49.84;101476.91;4191546;28;20044;-68
2022/04/27 07:40:39;;;;;;;12.70;7.97;;;;;;;22.87;49.89;101462.41;4187522;28;20049;-68
2022/04/27 07:42:41;;;;;;;9.70;6.57;;;;;;;22.95;49.61;101475.78;4175882;28;20141;-68
2022/04/27 07:44:43;;;;;;;10.43;6.95;;;;;;;22.95;50.00;101482.22;4180096;28;20549;-68
2022/04/27 07:46:47;;;;;;;9.25;6.20;;;;;;;22.96;49.96;101491.44;4174903;28;20091;-67
2022/04/27 07:48:51;;;;;;;9.73;6.22;;;;;;;22.94;49.60;101480.53;4185998;28;20041;-68
2022/04/27 07:51:01;;;;;;;11.95;6.88;;;;;;;22.93;49.71;101481.66;4183850;28;20040;-68
2022/04/27 07:53:03;;;;;;;11.43;6.82;;;;;;;22.94;49.67;101490.88;4183019;28;20041;-68
2022/04/27 07:55:05;;;;;;;9.25;6.47;;;;;;;22.93;49.70;101489.22;4181032;28;20318;-69
2022/04/27 07:57:12;;;;;;;10.85;6.95;;;;;;;22.87;49.79;101493.94;4179527;28;20198;-68
2022/04/27 07:59:16;;;;;;;9.57;6.28;;;;;;;22.90;49.48;101489.75;4168427;28;20041;-68
2022/04/27 08:01:18;;;;;;;9.23;6.38;;;;;;;22.90;49.54;101489.75;4182193;28;20106;-68
2022/04/27 08:03:19;;;;;;;7.68;5.85;;;;;;;22.75;49.65;101474.69;4182717;28;20070;-69
2022/04/27 08:05:21;;;;;;;10.48;6.53;;;;;;;22.87;49.56;101498.69;4174164;28;20488;-67
2022/04/27 08:07:23;;;;;;;9.95;5.93;;;;;;;22.91;49.51;101508.16;4172878;28;20045;-68
2022/04/27 08:09:24;;;;;;;9.27;6.32;;;;;;;22.81;49.41;101493.06;4185601;28;20142;-69
2022/04/27 08:11:28;;;;;;;7.95;5.78;;;;;;;22.89;49.41;101508.47;4179491;28;20131;-69
2022/04/27 08:13:30;;;;;;;8.50;6.03;;;;;;;22.90;49.10;101512.09;4179541;28;20037;-68
2022/04/27 08:15:31;;;;;;;8.60;5.75;;;;;;;22.85;49.37;101507.31;4174792;28;20044;-68
2022/04/27 08:17:42;;;;;;;8.32;5.28;;;;;;;22.90;49.24;101512.09;4170189;28;20099;-68
2022/04/27 08:19:46;;;;;;;7.95;5.68;;;;;;;22.90;49.12;101510.13;4177748;28;20045;-68
2022/04/27 08:21:52;;;;;;;7.17;5.57;;;;;;;22.91;49.17;101513.75;4177715;28;20477;-68
2022/04/27 08:23:54;;;;;;;7.63;4.95;;;;;;;22.87;49.02;101510.69;4190019;28;20036;-68
2022/04/27 08:26:01;;;;;;;7.13;5.28;;;;;;;22.91;48.77;101527.69;4178407;28;20091;-68
2022/04/27 08:28:08;;;;;;;7.78;5.68;;;;;;;22.89;48.96;101532.72;4177845;28;20083;-69
2022/04/27 08:30:10;;;;;;;7.18;4.97;;;;;;;22.87;48.82;101512.63;4183312;28;20114;-68
2022/04/27 08:32:14;;;;;;;7.82;5.00;;;;;;;22.88;48.63;101525.47;4181252;28;20194;-69
2022/04/27 08:34:16;;;;;;;7.00;5.47;;;;;;;22.82;48.69;101528.25;4179445;28;20439;-68
2022/04/27 08:36:17;;;;;;;9.25;5.10;;;;;;;22.85;48.63;101532.44;4180756;28;20347;-68
2022/04/27 08:38:18;;;;;;;8.63;5.53;;;;;;;22.44;48.56;101462.69;4175998;28;20159;-68
2022/04/27 08:40:20;;;;;;;7.97;5.32;;;;;;;22.86;48.78;101530.47;4182059;28;20045;-68
2022/04/27 08:42:21;;;;;;;7.05;4.82;;;;;;;22.84;48.62;101528.81;4169413;28;20444;-68
2022/04/27 08:44:23;;;;;;;7.90;4.43;;;;;;;22.82;48.63;101517.09;4171906;28;20037;-68
2022/04/27 08:46:26;;;;;;;7.90;4.53;;;;;;;22.86;48.55;101527.69;4181754;28;20033;-68
2022/04/27 08:48:28;;;;;;;6.43;4.30;;;;;;;22.79;48.28;101526.03;4179635;28;20037;-68
2022/04/27 08:50:31;;;;;;;7.28;4.60;;;;;;;22.83;48.30;101531.88;4175283;28;21830;-69
2022/04/27 08:52:32;;;;;;;7.25;4.93;;;;;;;22.83;48.09;101535.50;4167753;28;20045;-68
2022/04/27 08:54:34;;;;;;;7.35;4.55;;;;;;;22.80;48.25;101530.47;4172608;28;20092;-69
2022/04/27 08:56:36;;;;;;;6.95;4.78;;;;;;;22.77;48.07;101531.06;4165924;28;20559;-69
2022/04/27 08:58:40;;;;;;;6.93;4.97;;;;;;;22.81;47.93;101525.72;4180332;28;20589;-69
2022/04/27 09:00:43;;;;;;;6.27;4.57;;;;;;;22.78;48.22;101532.72;4172110;28;20087;-69
2022/04/27 09:02:45;;;;;;;6.40;4.32;;;;;;;22.83;48.17;101546.66;4181981;28;20087;-68
2022/04/27 09:05:07;;;;;;;6.97;4.18;;;;;;;22.78;48.15;101543.88;4179507;28;20040;-69
2022/04/27 09:07:16;;;;;;;6.30;4.05;;;;;;;22.82;47.96;101544.16;4175731;28;20107;-69
2022/04/27 09:09:37;;;;;;;6.72;4.53;;;;;;;22.68;48.11;101527.16;4171021;28;20086;-69
2022/04/27 09:11:39;;;;;;;5.00;3.92;;;;;;;22.83;47.57;101552.25;4178541;28;20057;-69
2022/04/27 09:13:46;;;;;;;6.55;4.38;;;;;;;22.73;48.02;101540.25;4178501;28;20036;-69
2022/04/27 09:16:02;;;;;;;6.57;4.25;;;;;;;22.72;47.71;101546.94;4165776;28;20444;-69
2022/04/27 09:22:45;;;;;;;4.95;3.97;;;;;;;22.69;47.53;101551.13;4169577;28;20064;-69
2022/04/27 09:24:54;;;;;;;6.50;4.15;;;;;;;22.81;47.81;101575.97;4174100;28;20045;-69
2022/04/27 09:27:11;;;;;;;6.10;4.22;;;;;;;22.78;47.62;101577.38;4181340;28;20995;-68
2022/04/27 09:29:25;;;;;;;5.00;3.95;;;;;;;22.78;47.55;101570.94;4178741;28;20041;-68
2022/04/27 09:31:32;;;;;;;5.68;3.92;;;;;;;22.77;47.33;101561.75;4178466;28;20166;-68
2022/04/27 09:33:39;;;;;;;5.40;3.80;;;;;;;22.74;47.83;101553.09;4173176;28;20037;-68
2022/04/27 09:35:40;;;;;;;5.38;3.85;;;;;;;22.78;47.29;101557.00;4175698;28;20037;-68
2022/04/27 09:37:42;;;;;;;5.93;3.95;;;;;;;22.77;47.55;101553.38;4180035;28;20052;-68
2022/04/27 09:39:59;;;;;;;5.15;3.60;;;;;;;22.74;47.75;101553.94;4180175;28;20110;-69
2022/04/27 09:42:05;;;;;;;5.30;4.10;;;;;;;22.76;47.24;101557.25;4177670;28;20041;-68